createdAt,value
2022-11-29T00:01:01.458Z,57.60
2022-11-29T00:03:28.938Z,55.00
2022-11-29T00:05:56.488Z,54.50
2022-11-29T00:08:24.453Z,49.30
2022-11-29T00:10:51.435Z,50.80
2022-11-29T00:13:18.231Z,64.70
2022-11-29T00:15:44.913Z,66.10
2022-11-29T00:18:11.603Z,66.10
2022-11-29T00:20:39.469Z,63.00
2022-11-29T00:23:06.167Z,50.00
2022-11-29T00:25:32.944Z,49.10
2022-11-29T00:27:59.870Z,47.60
2022-11-29T00:30:26.618Z,48.70
2022-11-29T00:32:53.381Z,49.70
2022-11-29T00:35:20.066Z,65.70
2022-11-29T00:37:46.732Z,55.80
2022-11-29T00:40:13.413Z,58.50
2022-11-29T00:42:40.099Z,60.10
2022-11-29T00:45:07.307Z,59.60
2022-11-29T00:47:33.983Z,55.00
2022-11-29T00:50:00.666Z,56.70
2022-11-29T00:52:27.358Z,52.90
2022-11-29T00:54:54.051Z,60.20
2022-11-29T00:57:21.396Z,59.40
2022-11-29T00:59:48.075Z,67.60
2022-11-29T01:02:14.840Z,68.50
2022-11-29T01:04:41.815Z,64.00
2022-11-29T01:07:08.686Z,64.00
2022-11-29T01:09:35.371Z,81.70
2022-11-29T01:12:02.154Z,77.10
2022-11-29T01:14:28.813Z,74.80
2022-11-29T01:16:55.527Z,66.50
2022-11-29T01:19:22.354Z,71.30
2022-11-29T01:21:49.154Z,76.90
2022-11-29T01:24:15.803Z,80.50
2022-11-29T01:29:26.589Z,83.70
2022-11-29T01:31:53.256Z,82.10
2022-11-29T01:34:20.087Z,83.50
2022-11-29T01:36:46.834Z,96.40
2022-11-29T01:39:13.527Z,90.30
2022-11-29T01:41:40.216Z,97.50
2022-11-29T01:44:26.948Z,104.50
2022-11-29T01:46:54.610Z,98.90
2022-11-29T01:49:39.732Z,107.20
2022-11-29T01:52:14.003Z,103.80
2022-11-29T01:54:45.680Z,83.70
2022-11-29T01:57:13.090Z,121.60
2022-11-29T01:59:46.581Z,98.90
2022-11-29T02:02:17.526Z,92.90
2022-11-29T02:04:46.308Z,89.60
2022-11-29T02:07:13.253Z,92.80
2022-11-29T02:09:40.732Z,86.00
2022-11-29T02:12:38.491Z,99.20
2022-11-29T02:15:13.602Z,102.10
2022-11-29T02:17:58.783Z,78.90
2022-11-29T02:20:48.434Z,76.70
2022-11-29T02:23:31.909Z,68.70
2022-11-29T02:26:21.311Z,82.70
2022-11-29T02:29:20.961Z,81.10
2022-11-29T02:32:02.762Z,80.10
2022-11-29T02:34:52.200Z,70.30
2022-11-29T02:37:27.360Z,71.50
2022-11-29T02:40:04.860Z,69.10
2022-11-29T02:42:57.192Z,74.80
2022-11-29T02:45:54.760Z,70.10
2022-11-29T02:48:44.417Z,70.30
2022-11-29T02:51:30.928Z,61.00
2022-11-29T02:54:04.623Z,70.90
2022-11-29T02:56:36.924Z,59.40
2022-11-29T02:59:16.705Z,61.50
2022-11-29T03:02:08.501Z,59.90
2022-11-29T03:04:43.924Z,67.80
2022-11-29T03:07:14.377Z,67.60
2022-11-29T03:09:48.753Z,67.50
2022-11-29T03:12:38.403Z,71.90
2022-11-29T03:15:19.822Z,60.40
2022-11-29T03:18:01.192Z,68.30
2022-11-29T03:20:50.370Z,66.30
2022-11-29T03:23:27.110Z,60.60
2022-11-29T03:26:10.930Z,73.80
2022-11-29T03:28:43.417Z,71.10
2022-11-29T03:31:18.064Z,73.80
2022-11-29T03:34:01.565Z,71.20
2022-11-29T03:36:41.230Z,70.60
2022-11-29T03:39:17.383Z,68.30
2022-11-29T03:41:52.377Z,69.10
2022-11-29T03:44:25.543Z,73.90
2022-11-29T03:47:12.687Z,78.80
2022-11-29T03:49:44.161Z,65.40
2022-11-29T03:52:41.580Z,55.00
2022-11-29T03:55:13.315Z,61.10
2022-11-29T03:57:56.832Z,62.50
2022-11-29T04:00:23.750Z,64.90
2022-11-29T04:03:21.946Z,64.60
2022-11-29T04:06:05.460Z,63.90
2022-11-29T04:09:02.613Z,51.00
2022-11-29T04:11:54.806Z,60.10
2022-11-29T04:14:44.898Z,61.90
2022-11-29T04:17:13.789Z,57.50
2022-11-29T04:20:11.594Z,66.70
2022-11-29T04:23:01.648Z,57.20
2022-11-29T04:25:44.733Z,45.40
2022-11-29T04:28:39.046Z,48.50
2022-11-29T04:31:28.918Z,51.00
2022-11-29T04:33:58.937Z,53.80
2022-11-29T04:36:30.502Z,55.60
2022-11-29T04:39:00.584Z,58.10
2022-11-29T04:41:30.646Z,55.90
2022-11-29T04:44:20.433Z,52.20
2022-11-29T04:47:09.759Z,48.10
2022-11-29T04:49:36.425Z,54.80
2022-11-29T04:52:20.612Z,57.00
2022-11-29T04:54:57.091Z,47.20
2022-11-29T04:57:35.773Z,52.00
2022-11-29T05:00:13.499Z,52.20
2022-11-29T05:02:59.842Z,57.80
2022-11-29T05:05:43.625Z,51.30
2022-11-29T05:08:13.115Z,61.10
2022-11-29T05:10:47.463Z,92.30
2022-11-29T05:13:44.630Z,89.10
2022-11-29T05:16:42.777Z,86.40
2022-11-29T05:19:14.986Z,70.40
2022-11-29T05:21:57.129Z,67.70
2022-11-29T05:24:39.070Z,62.30
2022-11-29T05:27:27.069Z,45.80
2022-11-29T05:30:13.184Z,57.50
2022-11-29T05:32:50.712Z,63.50
2022-11-29T05:35:34.613Z,73.90
2022-11-29T05:38:18.018Z,77.20
2022-11-29T05:40:44.829Z,74.80
2022-11-29T05:43:35.048Z,80.30
2022-11-29T05:46:13.614Z,71.20
2022-11-29T05:48:48.485Z,80.60
2022-11-29T05:51:21.133Z,75.80
2022-11-29T05:54:03.242Z,65.70
2022-11-29T05:56:49.106Z,70.20
2022-11-29T05:59:22.319Z,68.30
2022-11-29T06:01:59.625Z,59.90
2022-11-29T06:04:39.581Z,55.10
2022-11-29T06:07:24.949Z,68.60
2022-11-29T06:09:53.048Z,83.30
2022-11-29T06:12:23.849Z,111.30
2022-11-29T06:15:21.524Z,128.80
2022-11-29T06:18:03.758Z,108.80
2022-11-29T06:20:40.435Z,96.70
2022-11-29T06:23:33.418Z,88.20
2022-11-29T06:26:24.264Z,81.60
2022-11-29T06:28:51.017Z,82.60
2022-11-29T06:31:24.618Z,97.70
2022-11-29T06:34:12.454Z,92.10
2022-11-29T06:36:47.167Z,24.80
2022-11-29T06:39:14.209Z,41.80
2022-11-29T06:41:40.951Z,70.70
2022-11-29T06:44:08.653Z,36.90
2022-11-29T06:47:05.590Z,73.30
2022-11-29T06:49:44.730Z,37.70
2022-11-29T06:52:32.541Z,65.10
2022-11-29T06:55:03.001Z,75.10
2022-11-29T06:57:44.843Z,46.10
2022-11-29T07:00:21.628Z,45.10
2022-11-29T07:02:48.371Z,59.20
2022-11-29T07:05:23.865Z,48.00
2022-11-29T07:07:54.362Z,52.80
2022-11-29T07:10:22.458Z,50.30
2022-11-29T07:12:51.441Z,42.40
2022-11-29T07:15:21.466Z,46.20
2022-11-29T07:17:55.417Z,46.30
2022-11-29T07:20:35.918Z,40.80
2022-11-29T07:23:30.841Z,38.40
2022-11-29T07:26:28.535Z,36.10
2022-11-29T07:29:24.073Z,41.60
2022-11-29T07:32:11.998Z,37.00
2022-11-29T07:35:00.581Z,35.30
2022-11-29T07:37:46.209Z,38.10
2022-11-29T07:40:22.139Z,36.50
2022-11-29T07:43:04.040Z,37.50
2022-11-29T07:45:33.442Z,42.80
2022-11-29T07:48:00.448Z,37.00
2022-11-29T07:50:28.436Z,37.60
2022-11-29T07:52:56.497Z,39.60
2022-11-29T07:55:25.996Z,29.90
2022-11-29T07:57:53.691Z,36.90
2022-11-29T08:00:21.607Z,34.40
2022-11-29T08:02:49.988Z,22.90
2022-11-29T08:05:17.252Z,36.20
2022-11-29T08:07:44.097Z,42.50
2022-11-29T08:10:15.031Z,34.20
2022-11-29T08:12:44.897Z,38.60
2022-11-29T08:15:12.103Z,34.40
2022-11-29T08:17:39.613Z,36.70
2022-11-29T08:20:09.049Z,35.20
2022-11-29T08:22:36.063Z,32.40
2022-11-29T08:25:03.780Z,30.30
2022-11-29T08:27:30.840Z,31.50
2022-11-29T08:29:57.778Z,33.90
2022-11-29T08:32:24.922Z,35.50
2022-11-29T08:34:51.985Z,29.50
2022-11-29T08:37:18.726Z,28.10
2022-11-29T08:39:45.572Z,33.20
2022-11-29T08:42:12.263Z,30.50
2022-11-29T08:44:39.052Z,28.20
2022-11-29T08:47:21.080Z,30.30
2022-11-29T08:50:03.209Z,27.30
2022-11-29T08:52:47.042Z,28.40
2022-11-29T08:55:13.847Z,31.90
2022-11-29T08:57:41.402Z,31.30
2022-11-29T09:00:09.456Z,34.80
2022-11-29T09:02:37.363Z,28.30
2022-11-29T09:05:05.766Z,37.40
2022-11-29T09:07:32.656Z,35.40
2022-11-29T09:10:01.057Z,37.50
2022-11-29T09:12:27.907Z,36.00
2022-11-29T09:14:54.658Z,47.90
2022-11-29T09:17:21.401Z,42.60
2022-11-29T09:19:48.227Z,35.60
2022-11-29T09:22:14.982Z,42.40
2022-11-29T09:24:41.733Z,47.70
2022-11-29T09:27:08.453Z,51.50
2022-11-29T09:29:35.330Z,48.50
2022-11-29T09:32:02.092Z,49.30
2022-11-29T09:34:28.914Z,46.90
2022-11-29T09:36:55.768Z,50.90
2022-11-29T09:39:23.072Z,50.80
2022-11-29T09:42:11.966Z,53.50
2022-11-29T09:44:46.355Z,51.60
2022-11-29T09:47:14.268Z,54.70
2022-11-29T09:49:57.428Z,41.50
2022-11-29T09:52:40.851Z,47.90
2022-11-29T09:55:23.422Z,46.10
2022-11-29T09:57:52.350Z,38.40
2022-11-29T10:00:20.619Z,41.50
2022-11-29T10:02:57.054Z,42.30
2022-11-29T10:05:39.111Z,42.40
2022-11-29T10:08:15.860Z,37.50
2022-11-29T10:10:48.456Z,33.30
2022-11-29T10:13:33.445Z,42.80
2022-11-29T10:16:12.490Z,35.00
2022-11-29T10:18:48.470Z,31.60
2022-11-29T10:21:24.460Z,29.20
2022-11-29T10:23:55.498Z,30.30
2022-11-29T10:26:25.854Z,31.80
2022-11-29T10:28:57.886Z,30.90
2022-11-29T10:31:29.263Z,35.10
2022-11-29T10:33:58.173Z,33.60
2022-11-29T10:36:34.287Z,33.90
2022-11-29T10:39:11.402Z,35.50
2022-11-29T10:41:41.239Z,33.10
2022-11-29T10:44:13.861Z,32.90
2022-11-29T10:46:41.275Z,36.90
2022-11-29T10:49:17.468Z,40.90
2022-11-29T10:51:46.407Z,36.50
2022-11-29T10:54:27.993Z,38.40
2022-11-29T10:56:57.481Z,35.10
2022-11-29T10:59:27.100Z,36.10
2022-11-29T11:01:54.612Z,40.90
2022-11-29T11:04:26.839Z,44.50
2022-11-29T11:06:57.169Z,40.10
2022-11-29T11:09:35.660Z,35.90
2022-11-29T11:12:19.011Z,43.30
2022-11-29T11:14:47.198Z,38.70
2022-11-29T11:17:32.721Z,35.00
2022-11-29T11:20:18.926Z,38.70
2022-11-29T11:22:57.954Z,35.80
2022-11-29T11:25:41.298Z,30.50
2022-11-29T11:28:15.514Z,35.50
2022-11-29T11:30:51.496Z,31.20
2022-11-29T11:33:19.282Z,29.00
2022-11-29T11:36:17.649Z,23.30
2022-11-29T11:39:15.214Z,29.80
2022-11-29T11:41:58.460Z,21.90
2022-11-29T11:44:52.342Z,22.20
2022-11-29T11:47:24.502Z,22.40
2022-11-29T11:49:54.610Z,23.80
2022-11-29T11:52:26.412Z,23.30
2022-11-29T11:54:59.819Z,21.40
2022-11-29T11:57:28.255Z,22.30
2022-11-29T12:00:03.422Z,24.10
2022-11-29T12:02:40.848Z,25.50
2022-11-29T12:05:18.961Z,22.40
2022-11-29T12:08:09.801Z,21.60
2022-11-29T12:10:39.842Z,23.10
2022-11-29T12:13:16.268Z,18.70
2022-11-29T12:15:47.675Z,21.70
2022-11-29T12:18:36.187Z,22.00
2022-11-29T12:21:10.434Z,21.80
2022-11-29T12:23:47.746Z,21.90
2022-11-29T12:26:48.881Z,23.30
2022-11-29T12:29:17.701Z,19.80
2022-11-29T12:31:55.895Z,20.10
2022-11-29T12:34:45.286Z,22.30
2022-11-29T12:37:20.826Z,20.00
2022-11-29T12:39:57.415Z,18.90
2022-11-29T12:42:24.216Z,22.40
2022-11-29T12:45:06.318Z,22.30
2022-11-29T12:47:57.237Z,25.90
2022-11-29T12:50:39.637Z,21.60
2022-11-29T12:53:30.440Z,19.80
2022-11-29T12:56:19.120Z,22.50
2022-11-29T12:59:02.558Z,23.70
2022-11-29T13:02:04.865Z,22.00
2022-11-29T13:04:44.189Z,22.20
2022-11-29T13:07:30.132Z,25.00
2022-11-29T13:10:17.663Z,24.50
2022-11-29T13:12:53.922Z,24.70
2022-11-29T13:15:25.029Z,26.40
2022-11-29T13:17:53.164Z,23.90
2022-11-29T13:20:37.042Z,23.10
2022-11-29T13:23:14.503Z,26.40
2022-11-29T13:25:45.247Z,29.50
2022-11-29T13:28:29.258Z,29.40
2022-11-29T13:31:01.771Z,27.20
2022-11-29T13:33:59.116Z,28.40
2022-11-29T13:36:56.789Z,24.00
2022-11-29T13:39:54.487Z,23.20
2022-11-29T13:42:28.745Z,28.20
2022-11-29T13:45:07.529Z,30.60
2022-11-29T13:47:48.575Z,25.20
2022-11-29T13:50:44.327Z,28.20
2022-11-29T13:53:18.010Z,22.70
2022-11-29T13:55:50.338Z,30.00
2022-11-29T13:58:18.611Z,29.50
2022-11-29T14:00:45.847Z,24.60
2022-11-29T14:03:30.255Z,28.90
2022-11-29T14:09:17.237Z,31.50
2022-11-29T14:11:46.005Z,33.80
2022-11-29T14:14:14.024Z,30.90
2022-11-29T14:16:44.250Z,19.90
2022-11-29T14:19:20.399Z,30.60
2022-11-29T14:22:15.852Z,21.90
2022-11-29T14:24:55.538Z,22.90
2022-11-29T14:27:22.290Z,34.40
2022-11-29T14:29:50.199Z,34.60
2022-11-29T14:32:24.882Z,31.90
2022-11-29T14:35:04.816Z,38.20
2022-11-29T14:38:02.160Z,38.80
2022-11-29T14:40:41.580Z,41.90
2022-11-29T14:43:37.601Z,56.10
2022-11-29T14:46:09.494Z,41.50
2022-11-29T14:48:36.970Z,63.10
2022-11-29T14:51:12.791Z,40.70
2022-11-29T14:53:42.023Z,43.70
2022-11-29T14:56:32.892Z,45.80
2022-11-29T14:59:30.580Z,48.70
2022-11-29T15:01:58.979Z,52.20
2022-11-29T15:04:27.306Z,56.40
2022-11-29T15:06:57.096Z,56.00
2022-11-29T15:09:24.710Z,60.20
2022-11-29T15:12:09.837Z,57.10
2022-11-29T15:14:37.760Z,49.80
2022-11-29T15:17:17.930Z,59.70
2022-11-29T15:19:51.794Z,59.10
2022-11-29T15:22:22.678Z,49.30
2022-11-29T15:24:53.860Z,56.20
2022-11-29T15:27:21.835Z,57.70
2022-11-29T15:29:48.890Z,66.20
2022-11-29T15:32:23.799Z,67.10
2022-11-29T15:34:53.562Z,61.00
2022-11-29T15:37:24.847Z,71.00
2022-11-29T15:40:11.068Z,75.40
2022-11-29T15:42:40.945Z,391.80
2022-11-29T15:45:24.283Z,118.80
2022-11-29T15:47:51.256Z,125.50
2022-11-29T15:50:29.619Z,407.40
2022-11-29T15:53:02.014Z,135.30
2022-11-29T15:55:29.589Z,92.80
2022-11-29T15:58:02.632Z,221.40
2022-11-29T16:00:33.847Z,978.40
2022-11-29T16:03:02.205Z,690.70
2022-11-29T16:05:35.800Z,138.50
2022-11-29T16:08:07.935Z,101.70
2022-11-29T16:10:39.487Z,64.20
2022-11-29T16:13:27.660Z,63.00
2022-11-29T16:16:10.942Z,59.20
2022-11-29T16:18:41.001Z,62.00
2022-11-29T16:21:21.663Z,54.10
2022-11-29T16:23:48.618Z,56.30
2022-11-29T16:26:20.675Z,70.40
2022-11-29T16:28:50.357Z,360.10
2022-11-29T16:31:19.303Z,178.90
2022-11-29T16:33:49.093Z,94.50
2022-11-29T16:36:16.591Z,72.80
2022-11-29T16:38:47.017Z,66.00
2022-11-29T16:41:21.470Z,54.20
2022-11-29T16:43:53.671Z,64.90
2022-11-29T16:46:20.426Z,57.50
2022-11-29T16:48:49.455Z,56.20
2022-11-29T16:51:23.807Z,62.90
2022-11-29T16:53:52.527Z,60.20
2022-11-29T16:56:23.521Z,54.60
2022-11-29T16:59:20.867Z,68.70
2022-11-29T17:01:40.613Z,64.30
2022-11-29T17:04:09.037Z,58.30
2022-11-29T17:06:36.864Z,69.90
2022-11-29T17:09:03.892Z,56.70
2022-11-29T17:11:30.595Z,54.80
2022-11-29T17:13:57.716Z,52.30
2022-11-29T17:16:24.891Z,46.10
2022-11-29T17:18:52.996Z,52.60
2022-11-29T17:21:25.507Z,40.80
2022-11-29T17:23:53.608Z,45.30
2022-11-29T17:26:21.631Z,55.60
2022-11-29T17:28:50.277Z,60.00
2022-11-29T17:31:19.871Z,52.50
2022-11-29T17:33:46.685Z,58.60
2022-11-29T17:36:16.690Z,54.40
2022-11-29T17:38:44.788Z,50.60
2022-11-29T17:41:14.994Z,55.90
2022-11-29T17:43:42.399Z,47.70
2022-11-29T17:46:11.492Z,48.20
2022-11-29T17:48:38.800Z,50.80
2022-11-29T17:51:17.222Z,52.50
2022-11-29T17:53:53.887Z,60.00
2022-11-29T17:56:23.853Z,56.00
2022-11-29T17:58:52.512Z,51.50
2022-11-29T18:01:22.147Z,57.20
2022-11-29T18:03:52.019Z,50.80
2022-11-29T18:06:20.953Z,56.40
2022-11-29T18:08:50.718Z,55.10
2022-11-29T18:11:20.203Z,66.00
2022-11-29T18:13:47.974Z,60.70
2022-11-29T18:16:18.133Z,60.40
2022-11-29T18:18:45.486Z,62.70
2022-11-29T18:21:13.481Z,62.20
2022-11-29T18:23:42.848Z,67.40
2022-11-29T18:26:15.997Z,75.40
2022-11-29T18:31:31.231Z,75.20
2022-11-29T18:34:14.313Z,77.20
2022-11-29T18:36:44.535Z,72.80
2022-11-29T18:39:14.850Z,72.40
2022-11-29T18:41:44.082Z,71.40
2022-11-29T18:44:13.165Z,66.50
2022-11-29T18:46:41.672Z,58.00
2022-11-29T18:49:10.325Z,51.10
2022-11-29T18:51:38.106Z,57.90
2022-11-29T18:54:06.047Z,67.20
2022-11-29T18:56:35.057Z,60.50
2022-11-29T18:59:04.998Z,58.20
2022-11-29T19:01:37.885Z,50.70
2022-11-29T19:04:04.822Z,51.70
2022-11-29T19:06:39.371Z,45.30
2022-11-29T19:09:09.829Z,51.30
2022-11-29T19:11:36.573Z,46.40
2022-11-29T19:14:08.027Z,50.00
2022-11-29T19:16:34.801Z,30.80
2022-11-29T19:19:02.007Z,45.40
2022-11-29T19:21:32.061Z,49.60
2022-11-29T19:24:01.019Z,49.60
2022-11-29T19:26:29.637Z,51.20
2022-11-29T19:28:57.252Z,49.70
2022-11-29T19:31:25.294Z,39.90
2022-11-29T19:33:52.873Z,38.50
2022-11-29T19:36:22.483Z,51.00
2022-11-29T19:38:53.399Z,47.60
2022-11-29T19:41:23.635Z,53.40
2022-11-29T19:43:50.684Z,48.90
2022-11-29T19:46:18.984Z,50.80
2022-11-29T19:48:46.278Z,49.80
2022-11-29T19:51:16.591Z,48.90
2022-11-29T19:53:45.097Z,54.30
2022-11-29T19:56:14.334Z,58.20
2022-11-29T19:58:42.782Z,58.70
2022-11-29T20:01:14.962Z,51.70
2022-11-29T20:03:42.223Z,54.30
2022-11-29T20:06:09.902Z,52.40
2022-11-29T20:08:38.529Z,58.40
2022-11-29T20:11:11.769Z,51.90
2022-11-29T20:13:40.029Z,54.60
2022-11-29T20:16:12.097Z,53.30
2022-11-29T20:18:44.605Z,58.40
2022-11-29T20:21:32.421Z,59.80
2022-11-29T20:24:02.000Z,56.90
2022-11-29T20:26:31.100Z,60.80
2022-11-29T20:28:59.168Z,55.30
2022-11-29T20:31:26.404Z,63.00
2022-11-29T20:33:55.080Z,61.40
2022-11-29T20:36:52.930Z,57.70
2022-11-29T20:39:29.257Z,54.20
2022-11-29T20:42:14.752Z,55.00
2022-11-29T20:44:52.300Z,54.90
2022-11-29T20:47:21.775Z,53.20
2022-11-29T20:49:49.095Z,50.10
2022-11-29T20:52:30.843Z,57.60
2022-11-29T20:54:57.504Z,53.60
2022-11-29T20:57:24.237Z,59.10
2022-11-29T20:59:50.955Z,54.70
2022-11-29T21:02:17.607Z,58.30
2022-11-29T21:04:44.558Z,51.20
2022-11-29T21:07:11.604Z,52.20
2022-11-29T21:09:38.243Z,49.20
2022-11-29T21:12:05.547Z,51.40
2022-11-29T21:14:32.500Z,47.30
2022-11-29T21:16:59.768Z,51.60
2022-11-29T21:19:26.986Z,47.40
2022-11-29T21:22:01.468Z,41.80
2022-11-29T21:24:54.460Z,44.80
2022-11-29T21:27:34.219Z,46.80
2022-11-29T21:30:03.712Z,44.90
2022-11-29T21:32:31.807Z,37.60
2022-11-29T21:34:59.121Z,43.30
2022-11-29T21:37:29.739Z,44.30
2022-11-29T21:39:57.668Z,45.20
2022-11-29T21:42:24.348Z,45.60
2022-11-29T21:44:51.035Z,44.20
2022-11-29T21:47:17.949Z,48.10
2022-11-29T21:49:45.045Z,43.40
2022-11-29T21:52:11.749Z,48.20
2022-11-29T21:54:39.361Z,42.80
2022-11-29T21:57:06.102Z,45.40
2022-11-29T21:59:32.763Z,48.70
2022-11-29T22:01:59.701Z,46.40
2022-11-29T22:04:26.690Z,45.50
2022-11-29T22:06:53.569Z,45.10
2022-11-29T22:09:20.457Z,41.20
2022-11-29T22:11:47.110Z,45.50
2022-11-29T22:14:18.243Z,43.60
2022-11-29T22:16:47.274Z,42.00
2022-11-29T22:19:16.938Z,44.60
2022-11-29T22:21:46.536Z,46.60
2022-11-29T22:24:15.923Z,35.70
2022-11-29T22:26:43.911Z,42.50
2022-11-29T22:29:13.966Z,39.60
2022-11-29T22:31:41.608Z,43.00
2022-11-29T22:34:09.473Z,39.60
2022-11-29T22:36:37.551Z,46.10
2022-11-29T22:39:05.594Z,43.00
2022-11-29T22:41:34.088Z,43.10
2022-11-29T22:44:00.899Z,42.60
2022-11-29T22:46:29.048Z,42.60
2022-11-29T22:48:57.660Z,43.20
2022-11-29T22:51:30.628Z,39.80
2022-11-29T22:54:00.437Z,44.90
2022-11-29T22:56:29.691Z,37.70
2022-11-29T22:58:57.995Z,39.00
2022-11-29T23:01:26.976Z,35.90
2022-11-29T23:03:56.209Z,40.60
2022-11-29T23:06:25.604Z,44.70
2022-11-29T23:08:54.802Z,41.90
2022-11-29T23:11:24.175Z,43.30
2022-11-29T23:13:51.074Z,41.60
2022-11-29T23:16:20.626Z,40.10
2022-11-29T23:18:47.693Z,38.40
2022-11-29T23:21:20.926Z,36.20
2022-11-29T23:23:52.908Z,34.90
2022-11-29T23:26:26.066Z,38.20
2022-11-29T23:28:54.153Z,38.40
2022-11-29T23:31:22.615Z,41.80
2022-11-29T23:33:49.632Z,42.60
2022-11-29T23:36:17.899Z,42.50
2022-11-29T23:38:45.217Z,40.70
2022-11-29T23:41:12.294Z,34.70
2022-11-29T23:43:40.711Z,34.30
2022-11-29T23:46:10.363Z,35.40
2022-11-29T23:48:37.296Z,35.40
2022-11-29T23:51:04.308Z,41.80
2022-11-29T23:53:31.226Z,39.60
2022-11-29T23:56:00.112Z,31.70
2022-11-29T23:58:26.905Z,34.70
